Time;durP1;ratioP1;P1;durP2;ratioP2;P2;SDS_P1;SDS_P2;PMS_P1;PMS_P2;Temp;Humidity;BMP_temperature;BMP_pressure;BME280_temperature;BME280_humidity;BME280_pressure;Samples;Min_cycle;Max_cycle;Signal;HPM_P1;HPM_P2
2022/09/13 00:02:24;;;;;;;4.85;0.65;;;18.50;94.10;;;;;;5059430;28;20028;-74
2022/09/13 00:04:51;;;;;;;1.45;0.60;;;18.60;94.10;;;;;;5052776;28;20489;-73
2022/09/13 00:07:19;;;;;;;1.45;0.60;;;18.70;94.30;;;;;;5054441;28;20044;-75
2022/09/13 00:09:46;;;;;;;2.38;0.45;;;18.70;94.00;;;;;;5055658;28;20028;-73
2022/09/13 00:12:14;;;;;;;2.20;0.95;;;18.70;93.20;;;;;;5061712;28;20410;-76
2022/09/13 00:14:41;;;;;;;2.42;0.40;;;18.60;92.90;;;;;;5071821;28;20039;-76
2022/09/13 00:17:09;;;;;;;1.38;0.40;;;18.40;93.00;;;;;;5066963;28;20028;-74
2022/09/13 00:19:36;;;;;;;3.90;0.57;;;18.20;92.90;;;;;;5066786;28;20029;-76
2022/09/13 00:22:05;;;;;;;1.70;0.30;;;17.90;92.90;;;;;;5059622;28;20043;-76
2022/09/13 00:24:32;;;;;;;1.88;0.45;;;17.90;92.90;;;;;;5061106;28;20503;-77
2022/09/13 00:27:00;;;;;;;3.08;1.00;;;17.80;92.70;;;;;;5058924;28;20025;-78
2022/09/13 00:29:28;;;;;;;1.00;0.52;;;17.80;92.70;;;;;;5069552;28;20031;-78
2022/09/13 00:31:55;;;;;;;1.60;0.70;;;17.70;93.20;;;;;;5059975;28;20059;-78
2022/09/13 00:34:23;;;;;;;1.35;0.52;;;17.80;92.90;;;;;;5065357;28;20024;-77
2022/09/13 00:36:50;;;;;;;1.83;0.40;;;17.80;92.70;;;;;;5050528;28;20103;-76
2022/09/13 00:39:17;;;;;;;0.90;0.50;;;18.20;92.30;;;;;;5055886;28;20069;-75
2022/09/13 00:41:45;;;;;;;2.08;0.77;;;18.40;91.80;;;;;;5054302;28;20066;-78
2022/09/13 00:44:49;;;;;;;1.05;0.25;;;19.50;90.90;;;;;;5058603;28;20391;-75
2022/09/13 00:47:22;;;;;;;1.08;0.40;;;20.40;90.30;;;;;;5054499;28;20047;-77
2022/09/13 00:49:55;;;;;;;2.17;0.50;;;20.00;89.50;;;;;;5061525;28;20055;-77
2022/09/13 00:52:25;;;;;;;1.60;0.40;;;19.80;90.00;;;;;;5057448;28;20378;-78
2022/09/13 00:55:02;;;;;;;3.13;1.10;;;20.00;90.40;;;;;;5050325;28;20028;-77
2022/09/13 00:57:33;;;;;;;1.40;0.35;;;20.80;88.80;;;;;;5050761;28;20024;-79
2022/09/13 01:00:16;;;;;;;0.73;0.30;;;21.70;87.40;;;;;;5053665;28;20111;-78
2022/09/13 01:02:53;;;;;;;0.30;0.20;;;21.80;86.30;;;;;;5054829;28;20056;-78
2022/09/13 01:05:24;;;;;;;1.30;0.40;;;21.70;86.20;;;;;;5054924;28;20013;-78
2022/09/13 01:07:52;;;;;;;0.95;0.45;;;22.40;88.00;;;;;;5057985;28;20450;-76
2022/09/13 01:10:22;;;;;;;2.70;0.47;;;23.00;86.30;;;;;;5054369;28;20027;-78
2022/09/13 01:13:10;;;;;;;3.42;0.60;;;23.70;84.30;;;;;;5054695;28;20528;-77
2022/09/13 01:15:37;;;;;;;2.50;0.60;;;23.80;83.00;;;;;;5051301;28;20508;-77
2022/09/13 01:18:05;;;;;;;1.23;0.80;;;22.90;83.40;;;;;;5053201;28;20552;-77
2022/09/13 01:20:59;;;;;;;2.33;0.63;;;21.70;85.80;;;;;;5062097;28;20036;-77
2022/09/13 01:24:00;;;;;;;1.02;0.60;;;20.70;87.20;;;;;;5054548;28;20032;-74
2022/09/13 01:26:36;;;;;;;2.25;0.57;;;20.80;88.60;;;;;;5062097;28;20033;-76
2022/09/13 01:29:25;;;;;;;2.03;0.50;;;21.70;86.70;;;;;;5057127;28;20371;-77
2022/09/13 01:32:26;;;;;;;1.63;1.08;;;22.20;87.40;;;;;;5068278;28;20056;-77
2022/09/13 01:35:40;;;;;;;3.72;0.45;;;22.40;85.90;;;;;;5062857;28;20027;-78
2022/09/13 01:38:33;;;;;;;3.10;0.60;;;22.30;83.80;;;;;;4986948;28;20034;-76
2022/09/13 01:41:24;;;;;;;2.42;0.70;;;22.30;84.90;;;;;;5055519;28;20621;-76
2022/09/13 01:44:29;;;;;;;1.33;0.50;;;22.80;83.10;;;;;;5067552;28;20067;-76
2022/09/13 01:47:03;;;;;;;2.10;0.70;;;23.30;82.00;;;;;;5062405;28;20029;-78
2022/09/13 01:49:47;;;;;;;1.15;0.40;;;23.30;81.60;;;;;;5062886;28;20499;-76
2022/09/13 01:52:45;;;;;;;2.75;0.40;;;23.40;81.20;;;;;;5056474;28;20578;-75
2022/09/13 01:55:26;;;;;;;4.00;0.60;;;23.50;80.50;;;;;;5051378;28;20578;-75
2022/09/13 01:57:57;;;;;;;5.40;0.40;;;23.40;81.80;;;;;;5052393;28;20086;-76
2022/09/13 02:00:26;;;;;;;2.88;0.90;;;22.70;81.30;;;;;;5054788;28;20059;-76
2022/09/13 02:03:14;;;;;;;6.63;0.90;;;21.90;81.50;;;;;;5053783;28;20044;-75
2022/09/13 02:05:53;;;;;;;1.35;0.57;;;21.00;83.80;;;;;;5050636;28;20479;-74
2022/09/13 02:08:27;;;;;;;0.90;0.40;;;20.40;83.90;;;;;;5053566;28;20506;-75
2022/09/13 02:11:21;;;;;;;3.83;0.60;;;20.20;83.90;;;;;;5051902;28;20029;-74
2022/09/13 02:14:06;;;;;;;1.75;0.40;;;20.00;84.50;;;;;;5042644;28;20037;-74
2022/09/13 02:16:39;;;;;;;1.90;0.90;;;19.70;84.80;;;;;;5049825;28;20021;-74
2022/09/13 02:19:19;;;;;;;5.40;1.08;;;19.60;85.20;;;;;;5052414;28;20364;-77
2022/09/13 02:21:54;;;;;;;2.03;0.60;;;19.50;86.50;;;;;;5050804;28;20135;-77
2022/09/13 02:24:38;;;;;;;3.35;0.60;;;19.50;86.40;;;;;;5054912;28;20052;-75
2022/09/13 02:27:16;;;;;;;2.75;1.25;;;19.50;87.20;;;;;;5060721;28;20029;-76
2022/09/13 02:29:47;;;;;;;5.40;1.00;;;19.80;88.30;;;;;;5050734;28;20785;-77
2022/09/13 02:32:22;;;;;;;3.42;1.15;;;20.80;87.10;;;;;;5056611;28;20036;-82
2022/09/13 02:35:08;;;;;;;1.67;0.50;;;20.80;84.30;;;;;;5053861;28;20094;-80
2022/09/13 02:37:38;;;;;;;1.67;0.68;;;20.40;84.20;;;;;;5052046;28;20047;-88
2022/09/13 02:40:14;;;;;;;3.15;1.08;;;20.10;84.60;;;;;;5048628;28;20029;-82
2022/09/13 02:42:56;;;;;;;2.83;0.70;;;20.10;83.70;;;;;;5053796;28;20032;-78
2022/09/13 02:45:34;;;;;;;0.82;0.40;;;20.90;84.00;;;;;;5048874;28;20063;-76
2022/09/13 02:48:21;;;;;;;1.10;0.50;;;21.90;81.80;;;;;;5053256;28;20033;-81
2022/09/13 02:51:09;;;;;;;1.88;0.50;;;22.50;80.60;;;;;;5051915;28;20033;-78
2022/09/13 02:53:40;;;;;;;1.05;0.50;;;22.90;79.40;;;;;;5055742;28;20029;-82
2022/09/13 02:56:40;;;;;;;2.15;0.88;;;23.30;78.40;;;;;;5054188;28;20036;-88
2022/09/13 02:59:22;;;;;;;3.20;0.98;;;23.80;80.50;;;;;;5053774;28;20033;-78
2022/09/13 03:02:07;;;;;;;2.97;1.05;;;23.10;77.80;;;;;;5053290;28;20024;-89
2022/09/13 03:04:34;;;;;;;3.67;1.02;;;22.30;78.70;;;;;;5055458;28;20033;-89
2022/09/13 03:07:06;;;;;;;1.00;0.47;;;21.60;79.80;;;;;;5058593;28;20047;-86
2022/09/13 03:09:34;;;;;;;1.52;0.80;;;21.00;81.40;;;;;;5061873;28;20024;-91
2022/09/13 03:12:45;;;;;;;1.02;0.60;;;20.90;81.40;;;;;;5058009;28;20029;-89
2022/09/13 03:15:28;;;;;;;2.25;0.60;;;21.30;85.50;;;;;;5036997;28;20059;-78
2022/09/13 03:18:10;;;;;;;2.25;0.65;;;21.60;82.50;;;;;;5053465;28;20021;-82
2022/09/13 03:21:06;;;;;;;1.42;0.40;;;21.50;80.60;;;;;;5058185;28;20098;-79
2022/09/13 03:23:52;;;;;;;3.03;0.50;;;21.20;80.40;;;;;;5066596;28;20048;-89
2022/09/13 03:26:31;;;;;;;1.57;0.60;;;21.20;81.80;;;;;;5057532;28;20479;-89
2022/09/13 03:29:10;;;;;;;1.42;0.47;;;21.10;82.00;;;;;;5054049;28;20288;-85
2022/09/13 03:32:03;;;;;;;3.00;0.60;;;21.60;80.20;;;;;;5067359;28;20402;-77
2022/09/13 03:34:42;;;;;;;2.30;0.65;;;21.50;79.80;;;;;;5064735;28;20497;-78
2022/09/13 03:37:45;;;;;;;1.65;0.55;;;21.40;80.50;;;;;;5064184;28;20036;-76
2022/09/13 03:40:33;;;;;;;0.77;0.30;;;21.70;81.50;;;;;;5066190;28;20561;-80
2022/09/13 03:43:13;;;;;;;0.70;0.30;;;22.70;78.40;;;;;;5085367;28;20553;-78
2022/09/13 03:45:50;;;;;;;0.88;0.40;;;23.20;77.90;;;;;;5081999;28;20098;-80
2022/09/13 03:48:19;;;;;;;3.42;0.40;;;23.40;75.80;;;;;;5079517;28;20025;-75
2022/09/13 03:50:48;;;;;;;3.67;0.60;;;23.60;76.40;;;;;;5066993;28;20360;-80
2022/09/13 03:53:22;;;;;;;3.42;0.57;;;23.70;76.30;;;;;;5075553;28;20032;-74
2022/09/13 03:55:50;;;;;;;1.52;0.40;;;23.70;75.10;;;;;;5057362;28;20399;-78
2022/09/13 03:58:20;;;;;;;0.75;0.40;;;23.50;76.10;;;;;;5051582;28;20028;-79
2022/09/13 04:00:48;;;;;;;0.75;0.40;;;23.30;75.90;;;;;;5052498;28;20537;-84
2022/09/13 04:03:15;;;;;;;3.90;0.43;;;23.30;76.40;;;;;;5055062;28;20075;-87
2022/09/13 04:05:42;;;;;;;0.90;0.63;;;22.90;76.00;;;;;;5051362;28;20498;-78
2022/09/13 04:08:10;;;;;;;1.45;0.40;;;22.30;76.50;;;;;;5054432;28;20031;-79
2022/09/13 04:10:38;;;;;;;6.15;1.30;;;22.20;77.10;;;;;;5056340;28;20039;-85
2022/09/13 04:13:06;;;;;;;1.42;0.40;;;22.30;76.60;;;;;;5057362;28;20033;-75
2022/09/13 04:15:33;;;;;;;1.65;0.35;;;22.50;76.90;;;;;;5057991;28;20108;-83
2022/09/13 04:18:00;;;;;;;6.88;0.75;;;22.60;76.50;;;;;;5054111;28;20033;-80
2022/09/13 04:20:28;;;;;;;3.47;0.57;;;22.30;76.90;;;;;;5051531;28;20028;-83
2022/09/13 04:22:59;;;;;;;1.65;0.60;;;21.90;77.40;;;;;;5056237;28;20059;-79
2022/09/13 04:25:26;;;;;;;1.70;0.70;;;21.80;76.60;;;;;;5058213;28;20036;-74
2022/09/13 04:27:55;;;;;;;0.82;0.30;;;21.60;77.90;;;;;;5054011;28;20036;-79
2022/09/13 04:30:22;;;;;;;2.47;0.63;;;21.60;78.60;;;;;;5053975;28;20024;-79
2022/09/13 04:32:50;;;;;;;3.05;0.52;;;21.40;78.30;;;;;;5052920;28;20040;-82
2022/09/13 04:35:18;;;;;;;2.45;0.60;;;21.20;79.30;;;;;;5056154;28;20086;-76
2022/09/13 04:37:46;;;;;;;1.40;0.40;;;21.00;79.80;;;;;;5051464;28;20112;-81
2022/09/13 04:40:13;;;;;;;1.45;0.52;;;21.30;78.80;;;;;;5051271;28;20115;-75
2022/09/13 04:42:43;;;;;;;2.60;0.47;;;21.10;78.30;;;;;;5052998;28;20068;-79
2022/09/13 04:45:10;;;;;;;2.83;1.23;;;20.80;79.10;;;;;;5052562;28;20120;-79
2022/09/13 04:47:37;;;;;;;1.67;0.82;;;20.50;79.20;;;;;;5052817;28;20043;-79
2022/09/13 04:50:06;;;;;;;1.13;0.50;;;20.20;80.70;;;;;;5052355;28;20479;-80
2022/09/13 04:52:33;;;;;;;2.25;0.70;;;19.90;80.80;;;;;;5056274;28;20105;-86
2022/09/13 04:55:01;;;;;;;3.05;0.50;;;19.70;81.90;;;;;;5058833;28;20095;-87
2022/09/13 04:57:29;;;;;;;2.83;0.68;;;19.90;82.30;;;;;;5045997;28;20032;-76
2022/09/13 04:59:56;;;;;;;2.95;0.60;;;20.20;81.00;;;;;;5064930;28;20076;-83
2022/09/13 05:02:24;;;;;;;1.38;0.47;;;20.50;80.10;;;;;;5059166;28;20060;-86
2022/09/13 05:04:51;;;;;;;1.88;0.60;;;20.70;80.20;;;;;;5049173;28;20032;-88
2022/09/13 05:07:19;;;;;;;2.80;0.80;;;20.80;80.50;;;;;;5052715;28;20032;-83
2022/09/13 05:09:46;;;;;;;0.93;0.30;;;20.70;79.60;;;;;;5054800;28;20036;-76
2022/09/13 05:12:13;;;;;;;0.90;0.45;;;20.70;80.60;;;;;;5045182;28;20028;-80
2022/09/13 05:14:41;;;;;;;1.63;0.30;;;20.40;80.50;;;;;;5051111;28;20028;-79
2022/09/13 05:17:08;;;;;;;3.08;0.57;;;20.30;81.50;;;;;;5055502;28;20130;-80
2022/09/13 05:19:36;;;;;;;1.52;0.35;;;20.20;80.60;;;;;;5053904;28;20124;-79
2022/09/13 05:22:04;;;;;;;1.83;0.60;;;20.30;81.00;;;;;;5058368;28;20091;-80
2022/09/13 05:24:32;;;;;;;3.28;0.60;;;20.30;80.10;;;;;;5053946;28;20067;-84
2022/09/13 05:26:59;;;;;;;0.68;0.35;;;20.10;81.90;;;;;;5055731;28;20025;-76
2022/09/13 05:29:26;;;;;;;3.60;0.40;;;20.00;80.70;;;;;;5056205;28;20032;-80
2022/09/13 05:31:54;;;;;;;1.00;0.30;;;19.60;81.20;;;;;;5051696;28;20045;-87
2022/09/13 05:34:21;;;;;;;1.42;0.60;;;19.20;81.80;;;;;;5055688;28;20044;-87
2022/09/13 05:36:49;;;;;;;2.92;1.00;;;19.10;82.30;;;;;;5062887;28;20020;-87
2022/09/13 05:39:17;;;;;;;1.85;0.22;;;19.30;83.00;;;;;;5065435;28;20033;-82
2022/09/13 05:41:45;;;;;;;2.08;0.45;;;19.50;83.30;;;;;;5056393;28;20052;-83
2022/09/13 05:44:12;;;;;;;0.90;0.30;;;19.50;81.50;;;;;;5054877;28;20041;-79
2022/09/13 05:46:40;;;;;;;1.50;0.73;;;19.60;81.10;;;;;;5051985;28;20108;-83
2022/09/13 05:49:07;;;;;;;1.95;0.40;;;19.60;81.00;;;;;;5051205;28;20025;-80
2022/09/13 05:51:35;;;;;;;1.08;0.40;;;19.60;81.50;;;;;;5055911;28;20020;-80
2022/09/13 05:54:02;;;;;;;1.85;0.30;;;19.50;81.60;;;;;;5051409;28;20036;-79
2022/09/13 05:56:31;;;;;;;0.77;0.57;;;19.40;82.00;;;;;;5055973;28;20033;-82
2022/09/13 05:58:59;;;;;;;2.47;0.38;;;19.30;81.90;;;;;;5052009;28;20033;-81
2022/09/13 06:01:28;;;;;;;0.82;0.47;;;19.20;83.00;;;;;;5050904;28;20032;-82
2022/09/13 06:03:58;;;;;;;1.98;0.70;;;19.20;82.80;;;;;;5050924;28;20068;-77
2022/09/13 06:06:26;;;;;;;2.17;0.40;;;19.30;83.30;;;;;;5052747;28;20016;-82
2022/09/13 06:08:55;;;;;;;1.38;0.30;;;19.30;83.80;;;;;;5052426;28;20055;-78
2022/09/13 06:11:24;;;;;;;0.68;0.47;;;19.30;84.20;;;;;;5049677;28;20052;-85
2022/09/13 06:13:52;;;;;;;2.85;0.70;;;19.10;84.10;;;;;;5058823;28;20099;-79
2022/09/13 06:16:19;;;;;;;2.30;0.47;;;18.90;84.70;;;;;;5051403;28;20541;-78
2022/09/13 06:18:47;;;;;;;1.90;0.70;;;18.50;85.20;;;;;;5059993;28;20124;-80
2022/09/13 06:21:17;;;;;;;2.60;0.77;;;18.20;86.10;;;;;;5060196;28;20029;-82
2022/09/13 06:23:49;;;;;;;2.80;0.50;;;17.80;86.80;;;;;;5057338;28;20043;-80
2022/09/13 06:26:19;;;;;;;4.93;0.63;;;17.50;87.80;;;;;;5052984;28;20029;-78
2022/09/13 06:28:51;;;;;;;2.08;0.63;;;17.20;88.00;;;;;;5058233;28;20503;-75
2022/09/13 06:31:21;;;;;;;2.75;0.75;;;17.10;88.50;;;;;;5052865;28;20076;-77
2022/09/13 06:33:48;;;;;;;2.95;0.77;;;16.90;89.00;;;;;;5046547;28;20025;-77
2022/09/13 06:36:18;;;;;;;3.15;1.15;;;16.80;89.20;;;;;;5058399;28;20048;-77
2022/09/13 06:38:47;;;;;;;4.22;0.90;;;16.70;89.30;;;;;;5050240;28;20021;-76
2022/09/13 06:41:17;;;;;;;0.60;0.28;;;16.70;89.50;;;;;;5059352;28;20052;-80
2022/09/13 06:43:46;;;;;;;1.77;0.65;;;16.50;89.80;;;;;;5050405;28;20559;-78
2022/09/13 06:46:16;;;;;;;1.73;0.57;;;16.40;90.00;;;;;;5054151;28;20029;-79
2022/09/13 06:48:44;;;;;;;1.67;0.85;;;16.40;90.10;;;;;;5050824;28;20040;-79
2022/09/13 06:51:18;;;;;;;1.05;0.43;;;16.30;90.20;;;;;;5049799;28;20335;-82
2022/09/13 06:53:47;;;;;;;0.73;0.45;;;16.20;90.50;;;;;;5051228;28;20020;-79
2022/09/13 06:56:17;;;;;;;3.45;0.63;;;16.10;90.50;;;;;;5047825;28;20029;-80
2022/09/13 06:58:46;;;;;;;3.65;0.60;;;16.10;90.40;;;;;;5056238;28;20047;-78
2022/09/13 07:01:15;;;;;;;2.05;0.60;;;16.10;90.30;;;;;;5050830;28;20389;-80
2022/09/13 07:03:48;;;;;;;1.67;0.52;;;16.00;90.50;;;;;;5052136;28;20032;-79
2022/09/13 07:06:21;;;;;;;2.53;0.50;;;16.00;90.70;;;;;;5049787;28;20051;-80
2022/09/13 07:08:52;;;;;;;4.18;0.70;;;15.90;90.90;;;;;;5061812;28;20055;-76
2022/09/13 07:11:25;;;;;;;1.08;0.40;;;15.80;90.80;;;;;;5060076;28;20028;-75
2022/09/13 07:13:54;;;;;;;1.98;1.05;;;15.70;90.80;;;;;;5049427;28;20839;-76
2022/09/13 07:16:25;;;;;;;3.00;0.82;;;15.70;91.00;;;;;;5051355;28;20033;-77
2022/09/13 07:18:57;;;;;;;2.58;1.17;;;15.60;91.00;;;;;;5061298;28;20107;-77
2022/09/13 07:21:26;;;;;;;3.50;0.70;;;15.50;91.30;;;;;;5057347;28;20057;-77
2022/09/13 07:23:56;;;;;;;2.95;0.50;;;15.40;91.30;;;;;;5049946;28;20111;-77
2022/09/13 07:26:26;;;;;;;1.75;0.50;;;15.30;91.60;;;;;;5055770;28;20112;-77
2022/09/13 07:28:59;;;;;;;4.68;0.80;;;15.20;91.60;;;;;;5064487;28;20040;-76
2022/09/13 07:31:29;;;;;;;4.30;0.68;;;15.10;91.80;;;;;;5066837;28;20052;-77
2022/09/13 07:34:05;;;;;;;7.38;1.67;;;15.00;91.90;;;;;;5067448;28;20036;-77
2022/09/13 07:36:34;;;;;;;2.67;0.57;;;14.90;92.10;;;;;;5054297;28;20092;-77
2022/09/13 07:39:02;;;;;;;2.83;1.05;;;14.90;92.40;;;;;;5074576;28;20516;-77
2022/09/13 07:41:31;;;;;;;3.30;0.50;;;14.80;92.40;;;;;;5070108;28;20016;-77
2022/09/13 07:44:00;;;;;;;2.45;0.93;;;14.80;92.50;;;;;;5089605;28;20044;-77
2022/09/13 07:46:32;;;;;;;3.95;0.95;;;14.80;92.50;;;;;;5059049;28;20024;-78
2022/09/13 07:49:01;;;;;;;1.95;0.68;;;14.70;92.60;;;;;;5054390;28;20029;-79
2022/09/13 07:51:34;;;;;;;1.73;0.77;;;14.70;92.80;;;;;;5049490;28;20063;-76
2022/09/13 07:54:04;;;;;;;1.90;0.40;;;14.70;92.90;;;;;;5071450;28;20054;-77
2022/09/13 07:56:34;;;;;;;3.08;0.70;;;14.60;93.10;;;;;;5067331;28;20021;-79
2022/09/13 07:59:04;;;;;;;3.22;0.60;;;14.50;93.50;;;;;;5066869;28;20032;-78
2022/09/13 08:01:40;;;;;;;2.63;1.10;;;14.40;93.60;;;;;;5067213;28;20024;-79
2022/09/13 08:04:11;;;;;;;;;;;14.40;93.60;;;;;;5072216;28;20120;-78
2022/09/13 08:06:40;;;;;;;4.82;0.80;;;14.40;93.70;;;;;;5062381;28;19916;-78
2022/09/13 08:09:08;;;;;;;1.58;0.90;;;14.30;93.60;;;;;;5069752;28;20148;-80
2022/09/13 08:11:37;;;;;;;4.78;0.70;;;14.30;93.50;;;;;;5062605;28;20346;-79
2022/09/13 08:14:07;;;;;;;3.00;1.02;;;14.30;93.90;;;;;;5063630;28;20440;-76
2022/09/13 08:16:35;;;;;;;7.05;1.13;;;14.20;93.90;;;;;;5055402;28;20029;-77
2022/09/13 08:19:03;;;;;;;1.27;0.73;;;14.20;94.10;;;;;;5070904;28;20027;-78
2022/09/13 08:21:36;;;;;;;3.85;0.93;;;14.20;93.90;;;;;;5062926;28;20037;-76
2022/09/13 08:24:05;;;;;;;6.18;1.23;;;14.10;93.90;;;;;;5066483;28;20047;-77
2022/09/13 08:26:35;;;;;;;3.05;0.80;;;14.20;93.70;;;;;;5060127;28;20491;-80
2022/09/13 08:29:04;;;;;;;5.22;1.83;;;14.20;93.70;;;;;;5059636;28;20036;-75
2022/09/13 08:31:33;;;;;;;10.13;4.95;;;14.10;93.70;;;;;;5075919;28;20043;-75
2022/09/13 08:34:00;;;;;;;5.78;3.67;;;14.20;93.90;;;;;;5093096;28;20478;-78
2022/09/13 08:36:28;;;;;;;11.40;5.07;;;14.10;93.80;;;;;;5068080;28;20028;-76
2022/09/13 08:39:00;;;;;;;10.52;4.10;;;14.10;93.70;;;;;;5080436;28;20080;-78
2022/09/13 08:41:36;;;;;;;3.05;2.03;;;14.10;93.70;;;;;;5064457;28;20024;-77
2022/09/13 08:44:25;;;;;;;2.92;1.38;;;14.10;93.80;;;;;;5057026;28;20518;-79
2022/09/13 08:47:02;;;;;;;4.80;1.23;;;14.00;94.00;;;;;;5056804;28;20047;-76
2022/09/13 08:49:36;;;;;;;4.03;1.50;;;14.00;94.20;;;;;;5074217;28;20104;-78
2022/09/13 08:52:19;;;;;;;2.63;1.52;;;13.90;94.00;;;;;;5054792;28;20024;-77
2022/09/13 08:54:48;;;;;;;2.85;1.20;;;13.90;94.20;;;;;;5079804;28;20036;-78
2022/09/13 08:57:27;;;;;;;1.85;0.90;;;13.90;94.20;;;;;;5070215;28;20028;-78
2022/09/13 09:00:26;;;;;;;4.20;1.20;;;13.90;94.40;;;;;;5068191;28;20025;-76
2022/09/13 09:03:13;;;;;;;3.53;0.90;;;13.90;94.50;;;;;;5065010;28;20390;-79
2022/09/13 09:05:47;;;;;;;3.20;0.63;;;13.90;94.50;;;;;;5074495;28;20104;-79
2022/09/13 09:08:42;;;;;;;3.63;0.50;;;13.90;94.70;;;;;;5074015;28;20167;-78
2022/09/13 09:11:55;;;;;;;2.35;0.60;;;13.90;94.60;;;;;;5069172;28;20028;-77
2022/09/13 09:14:40;;;;;;;1.95;0.50;;;13.80;94.50;;;;;;5054945;28;20036;-78
2022/09/13 09:17:36;;;;;;;3.03;1.13;;;13.90;94.90;;;;;;5058969;28;20033;-77
2022/09/13 09:20:19;;;;;;;1.17;0.70;;;13.90;94.90;;;;;;5056568;28;20025;-78
2022/09/13 09:22:48;;;;;;;3.38;0.85;;;13.90;94.80;;;;;;5059838;28;20039;-79
2022/09/13 09:25:16;;;;;;;2.13;0.68;;;13.90;94.80;;;;;;5074099;28;20082;-78
2022/09/13 09:27:43;;;;;;;1.48;0.50;;;13.90;94.80;;;;;;5081181;28;20036;-77
2022/09/13 09:30:14;;;;;;;3.90;0.35;;;13.90;94.70;;;;;;5081091;28;20510;-77
2022/09/13 09:32:51;;;;;;;3.15;0.70;;;13.90;94.80;;;;;;5070412;28;20028;-78
2022/09/13 09:35:53;;;;;;;1.67;0.50;;;13.90;95.00;;;;;;5057147;28;20474;-77
2022/09/13 09:38:30;;;;;;;2.80;0.68;;;13.90;94.90;;;;;;5056931;28;20029;-77
2022/09/13 09:41:04;;;;;;;4.78;1.15;;;14.00;95.10;;;;;;5056502;28;20086;-76
2022/09/13 09:43:44;;;;;;;1.95;1.00;;;14.00;95.00;;;;;;5065728;28;20044;-78
2022/09/13 09:46:14;;;;;;;3.92;1.17;;;14.00;95.00;;;;;;5064310;28;20033;-78
2022/09/13 09:48:55;;;;;;;2.88;1.17;;;14.00;95.00;;;;;;5069022;28;20062;-77
2022/09/13 09:51:25;;;;;;;3.15;2.25;;;14.00;95.10;;;;;;5051682;28;20037;-78
2022/09/13 09:54:00;;;;;;;1.90;0.90;;;13.90;95.20;;;;;;5050944;28;20054;-77
2022/09/13 09:56:33;;;;;;;1.80;0.82;;;13.90;95.30;;;;;;5057115;28;20029;-78
2022/09/13 09:59:02;;;;;;;2.63;1.25;;;13.90;95.30;;;;;;5071287;28;20028;-76
2022/09/13 10:01:36;;;;;;;7.20;1.02;;;13.90;95.30;;;;;;5046707;28;20537;-78
2022/09/13 10:04:21;;;;;;;1.02;0.47;;;13.90;95.10;;;;;;5057095;28;20147;-78
2022/09/13 10:06:50;;;;;;;1.90;1.20;;;13.90;95.20;;;;;;5051501;28;20428;-78
2022/09/13 10:09:23;;;;;;;1.10;0.68;;;13.90;95.40;;;;;;5064071;28;20035;-76
2022/09/13 10:11:57;;;;;;;1.27;0.68;;;13.90;95.40;;;;;;5062645;28;20069;-79
2022/09/13 10:14:43;;;;;;;1.20;0.57;;;13.90;95.50;;;;;;5071098;28;20158;-76
2022/09/13 10:17:20;;;;;;;3.55;0.80;;;13.90;95.30;;;;;;5057361;28;20044;-76
2022/09/13 10:20:00;;;;;;;2.17;0.80;;;13.90;95.20;;;;;;5072332;28;20079;-77
2022/09/13 10:22:32;;;;;;;1.73;0.88;;;13.90;95.30;;;;;;5054916;28;20041;-78
2022/09/13 10:25:21;;;;;;;3.10;1.00;;;13.80;95.40;;;;;;5059775;28;20425;-77
2022/09/13 10:27:53;;;;;;;4.07;0.50;;;13.80;95.30;;;;;;5067390;28;20021;-76
2022/09/13 10:30:33;;;;;;;4.40;1.08;;;13.80;95.40;;;;;;5066297;28;20064;-78
2022/09/13 10:33:01;;;;;;;2.47;0.80;;;13.80;95.50;;;;;;5065194;28;20033;-78
2022/09/13 10:35:29;;;;;;;2.42;0.52;;;13.80;95.50;;;;;;5048275;28;20526;-79
2022/09/13 10:37:57;;;;;;;6.60;1.60;;;13.80;95.60;;;;;;5050098;28;20581;-78
2022/09/13 10:40:37;;;;;;;5.72;0.98;;;13.80;95.70;;;;;;5032119;28;20036;-78
2022/09/13 10:43:14;;;;;;;2.58;0.50;;;13.70;95.60;;;;;;5056018;28;20059;-78
2022/09/13 10:45:42;;;;;;;1.25;0.60;;;13.70;95.70;;;;;;5053287;28;20074;-76
2022/09/13 10:48:16;;;;;;;5.80;0.95;;;13.70;95.80;;;;;;5079413;28;20020;-77
2022/09/13 10:51:20;;;;;;;2.40;0.55;;;13.70;95.60;;;;;;5063389;28;20025;-77
2022/09/13 10:53:47;;;;;;;3.08;0.55;;;13.70;95.70;;;;;;5056933;28;20430;-76
2022/09/13 10:56:26;;;;;;;2.80;0.60;;;13.70;95.80;;;;;;5059650;28;20036;-79
2022/09/13 10:59:16;;;;;;;1.83;0.55;;;13.70;96.00;;;;;;5062942;28;20529;-78
2022/09/13 11:02:10;;;;;;;3.47;0.50;;;13.70;96.10;;;;;;5055372;28;20167;-77
2022/09/13 11:05:13;;;;;;;3.10;0.45;;;13.70;96.00;;;;;;5083459;28;20053;-77
2022/09/13 11:07:59;;;;;;;2.05;0.70;;;13.70;96.10;;;;;;5002391;28;20518;-76
2022/09/13 11:10:40;;;;;;;2.88;0.60;;;13.70;96.00;;;;;;5068618;28;20025;-75
2022/09/13 11:13:28;;;;;;;1.33;0.60;;;13.70;96.10;;;;;;5046343;28;20041;-76
2022/09/13 11:16:03;;;;;;;2.75;0.77;;;13.60;96.20;;;;;;5057168;28;20063;-74
2022/09/13 11:18:39;;;;;;;6.43;0.82;;;13.60;96.20;;;;;;5065529;28;20040;-74
2022/09/13 11:21:19;;;;;;;2.30;0.43;;;13.60;96.30;;;;;;5065156;28;20029;-75
2022/09/13 11:24:18;;;;;;;6.50;1.00;;;13.50;96.40;;;;;;5056329;28;20051;-73
2022/09/13 11:26:55;;;;;;;4.47;0.82;;;13.50;96.40;;;;;;5068482;28;20028;-73
2022/09/13 11:29:49;;;;;;;3.53;0.75;;;13.40;96.60;;;;;;5062939;28;20025;-74
2022/09/13 11:32:31;;;;;;;3.10;1.15;;;13.30;96.70;;;;;;5066149;28;20052;-75
2022/09/13 11:35:26;;;;;;;1.33;0.77;;;13.20;96.70;;;;;;5057502;28;20375;-75
2022/09/13 11:37:57;;;;;;;4.55;0.77;;;13.10;97.00;;;;;;5053318;28;21905;-72
2022/09/13 11:40:45;;;;;;;3.78;0.95;;;13.10;97.10;;;;;;5054553;28;20689;-74
2022/09/13 11:43:21;;;;;;;5.30;0.70;;;13.00;97.10;;;;;;5055888;28;20047;-74
2022/09/13 11:45:59;;;;;;;;;;;13.00;97.20;;;;;;5063158;28;20032;-75
2022/09/13 11:48:59;;;;;;;3.83;0.70;;;12.90;97.30;;;;;;5053318;28;19917;-74
2022/09/13 11:51:41;;;;;;;5.07;0.47;;;12.90;97.50;;;;;;5044879;28;20117;-75
2022/09/13 11:54:42;;;;;;;4.82;0.57;;;12.90;97.60;;;;;;5088533;28;20016;-76
2022/09/13 11:57:23;;;;;;;2.15;0.80;;;12.90;97.70;;;;;;5078803;28;20351;-74
2022/09/13 11:59:59;;;;;;;2.80;0.70;;;13.00;97.80;;;;;;5055874;28;20055;-74
2022/09/13 12:02:53;;;;;;;3.97;0.68;;;13.00;97.90;;;;;;5050985;28;20508;-74
2022/09/13 12:05:23;;;;;;;5.93;1.33;;;12.90;98.00;;;;;;5057445;28;20793;-75
2022/09/13 12:08:18;;;;;;;5.50;2.72;;;12.90;98.10;;;;;;5061926;28;20487;-73
2022/09/13 12:10:52;;;;;;;6.53;4.90;;;12.90;98.10;;;;;;5064282;28;20048;-74
2022/09/13 12:13:29;;;;;;;8.93;5.60;;;12.90;98.20;;;;;;5061529;28;20367;-74
2022/09/13 12:16:06;;;;;;;8.13;5.97;;;12.90;98.30;;;;;;5052298;28;20025;-74
2022/09/13 12:18:44;;;;;;;6.43;4.28;;;12.80;98.40;;;;;;5058033;28;20029;-73
2022/09/13 12:21:13;;;;;;;13.73;4.55;;;12.80;98.60;;;;;;5055105;28;20105;-74
2022/09/13 12:23:52;;;;;;;6.90;3.83;;;12.80;98.40;;;;;;5054732;28;20037;-76
2022/09/13 12:26:26;;;;;;;5.07;2.97;;;12.80;98.40;;;;;;5055815;28;20028;-75
2022/09/13 12:29:07;;;;;;;7.72;2.72;;;12.80;98.40;;;;;;5055203;28;20036;-75
2022/09/13 12:31:35;;;;;;;4.40;2.00;;;12.80;98.50;;;;;;5056114;28;20098;-76
2022/09/13 12:34:09;;;;;;;3.35;1.48;;;12.80;98.40;;;;;;5056600;28;20037;-75
2022/09/13 12:37:04;;;;;;;6.93;3.33;;;12.70;98.40;;;;;;5058365;28;20029;-73
2022/09/13 12:40:05;;;;;;;3.63;1.60;;;12.80;98.40;;;;;;5064644;28;20025;-73
2022/09/13 12:42:54;;;;;;;3.95;1.23;;;12.80;98.50;;;;;;5061835;28;20044;-73
2022/09/13 12:45:39;;;;;;;1.63;1.00;;;12.70;98.50;;;;;;5050974;28;20036;-75
2022/09/13 12:48:34;;;;;;;4.18;0.80;;;12.70;98.60;;;;;;5055299;28;20360;-76
2022/09/13 12:51:08;;;;;;;3.58;0.85;;;12.70;98.60;;;;;;5061965;28;20371;-76
2022/09/13 12:53:56;;;;;;;1.13;0.70;;;12.70;98.60;;;;;;5065182;28;20036;-75
2022/09/13 12:56:41;;;;;;;2.58;1.05;;;12.70;98.50;;;;;;5072268;28;20019;-74
2022/09/13 12:59:23;;;;;;;2.22;0.50;;;12.70;98.50;;;;;;5072182;28;22439;-74
2022/09/13 13:01:51;;;;;;;3.00;0.50;;;12.60;98.50;;;;;;5082276;28;20028;-75
2022/09/13 13:04:29;;;;;;;1.35;0.60;;;12.60;98.60;;;;;;5070307;28;20033;-76
2022/09/13 13:07:07;;;;;;;3.30;1.00;;;12.60;98.70;;;;;;5055230;28;20031;-75
2022/09/13 13:09:47;;;;;;;5.32;1.15;;;12.60;98.70;;;;;;5065343;28;20029;-75
2022/09/13 13:12:39;;;;;;;1.80;0.50;;;12.60;98.70;;;;;;5052091;28;20021;-74
2022/09/13 13:15:26;;;;;;;5.60;1.40;;;12.60;98.80;;;;;;5051975;28;20032;-75
2022/09/13 13:17:55;;;;;;;3.25;0.80;;;12.50;98.70;;;;;;5063750;28;20107;-74
2022/09/13 13:20:56;;;;;;;4.90;1.20;;;12.60;98.80;;;;;;5053668;28;20097;-74
2022/09/13 13:23:34;;;;;;;2.92;0.75;;;12.60;98.90;;;;;;5068803;28;20040;-73
2022/09/13 13:26:07;;;;;;;3.47;0.57;;;12.60;98.80;;;;;;5083661;28;20028;-73
2022/09/13 13:28:44;;;;;;;1.77;0.75;;;12.60;98.80;;;;;;5052664;28;20021;-75
2022/09/13 13:31:29;;;;;;;1.67;0.40;;;12.60;98.70;;;;;;5056555;28;20052;-75
2022/09/13 13:34:22;;;;;;;1.27;0.63;;;12.60;98.40;;;;;;5052490;28;20037;-75